Athens, West Virginia
Current Conditions -  °F | °C
As of 2:52 AM on Thursday 29 Jan 2015 (Local Time) from KBLF Reporting Station
Clear Clear  
Wind Chill: -3°   Ceiling: Unl
Heat Index:   Visibility: 10mi
Dew Point: -11°   Wind: 6mph
Humidity: 45%   Direction: 160°SSE
Pressure: 30.17"   Gusts: NA
Location:  37.42°N, 81.02°W
Report Text: KBLF 290752Z AUTO 16005KT 10SM CLR 00/M11 A3017 RMK AO2 SLP231 T00001106
Loading
Personal Weather Stations






























Interactive Weather Map New forecast layout! Learn more

10-Day Weather Forecast

Advertisements
Track Severe Weather on mobile